Time;durP1;ratioP1;P1;durP2;ratioP2;P2;SDS_P1;SDS_P2;PMS_P1;PMS_P2;Temp;Humidity;BMP_temperature;BMP_pressure;BME280_temperature;BME280_humidity;BME280_pressure;Samples;Min_cycle;Max_cycle;Signal;HPM_P1;HPM_P2
2023/04/03 00:01:05;;;;;;;8.07;6.47;;;;;;;0.85;100.00;102899.75;4933160;29;20584;-84
2023/04/03 00:03:30;;;;;;;8.32;6.68;;;;;;;0.88;100.00;102896.28;4951055;29;20055;-84
2023/04/03 00:06:11;;;;;;;10.45;7.32;;;;;;;0.83;100.00;102893.72;4950447;29;20066;-84
2023/04/03 00:08:41;;;;;;;13.82;8.07;;;;;;;0.81;100.00;102895.44;4918631;29;20119;-84
2023/04/03 00:11:10;;;;;;;10.00;8.00;;;;;;;0.88;100.00;102901.47;4913892;29;20039;-84
2023/04/03 00:13:39;;;;;;;9.25;8.20;;;;;;;0.79;100.00;102894.53;4925656;29;20048;-84
2023/04/03 00:16:32;;;;;;;8.48;7.40;;;;;;;0.75;100.00;102900.59;4925175;29;20066;-84
2023/04/03 00:18:57;;;;;;;10.43;7.07;;;;;;;0.81;100.00;102894.56;4934926;29;20067;-84
2023/04/03 00:21:23;;;;;;;10.40;7.50;;;;;;;0.75;100.00;102899.72;4951860;29;20071;-84
2023/04/03 00:23:55;;;;;;;9.15;7.10;;;;;;;0.69;100.00;102908.38;4933286;29;20063;-84
2023/04/03 00:26:20;;;;;;;9.77;8.30;;;;;;;0.66;100.00;102910.09;4915055;29;20048;-84
2023/04/03 00:28:49;;;;;;;10.07;7.18;;;;;;;0.61;100.00;102910.09;4911339;29;20477;-83
2023/04/03 00:31:25;;;;;;;11.27;7.57;;;;;;;0.59;100.00;102919.59;4909748;29;20040;-83
2023/04/03 00:33:54;;;;;;;9.05;7.28;;;;;;;0.56;100.00;102915.28;4915462;29;20035;-84
2023/04/03 00:36:23;;;;;;;10.13;7.35;;;;;;;0.55;100.00;102917.88;4932900;29;20137;-84
2023/04/03 00:38:48;;;;;;;8.63;7.55;;;;;;;0.53;100.00;102914.41;4889995;29;20077;-84
2023/04/03 00:41:37;;;;;;;9.35;6.95;;;;;;;0.56;100.00;102914.41;4891551;29;20041;-84
2023/04/03 00:44:45;;;;;;;7.82;7.03;;;;;;;0.53;100.00;102915.28;4869180;29;20136;-84
2023/04/03 00:47:24;;;;;;;10.35;7.55;;;;;;;0.53;100.00;102919.59;4853105;29;20041;-84
2023/04/03 00:50:11;;;;;;;8.32;7.00;;;;;;;0.44;100.00;102925.63;4853725;29;20041;-84
2023/04/03 00:52:46;;;;;;;8.05;6.95;;;;;;;0.44;100.00;102924.78;4871967;29;20134;-84
2023/04/03 00:55:24;;;;;;;7.90;6.90;;;;;;;0.39;100.00;102924.75;4873956;29;20055;-84
2023/04/03 00:57:54;;;;;;;8.50;7.60;;;;;;;0.38;100.00;102925.59;4876792;29;20072;-84
2023/04/03 01:00:26;;;;;;;7.65;6.75;;;;;;;0.35;100.00;102930.78;4891194;29;20434;-84
2023/04/03 01:03:01;;;;;;;7.82;6.25;;;;;;;0.30;100.00;102916.97;4862809;29;20045;-84
2023/04/03 01:05:28;;;;;;;8.25;6.20;;;;;;;0.26;100.00;102926.44;4860542;29;20078;-84
2023/04/03 01:07:57;;;;;;;6.90;6.13;;;;;;;0.22;100.00;102924.72;4881180;29;20059;-84
2023/04/03 01:10:22;;;;;;;7.13;6.13;;;;;;;0.22;100.00;102926.44;4857412;29;20037;-84
2023/04/03 01:12:52;;;;;;;7.40;6.30;;;;;;;0.21;100.00;102928.16;4857913;29;20037;-84
2023/04/03 01:15:34;;;;;;;7.88;6.65;;;;;;;0.18;100.00;102925.56;4860639;29;20097;-84
2023/04/03 01:18:04;;;;;;;10.82;6.97;;;;;;;0.15;100.00;102922.13;4911944;29;20035;-84
2023/04/03 01:20:35;;;;;;;10.10;7.50;;;;;;;0.10;100.00;102923.84;4900777;29;20036;-84
2023/04/03 01:23:10;;;;;;;8.65;7.53;;;;;;;0.06;100.00;102920.38;4893251;29;20037;-84
2023/04/03 01:25:59;;;;;;;9.05;7.32;;;;;;;0.11;100.00;102928.16;4907208;29;20082;-84
2023/04/03 01:28:47;;;;;;;9.38;6.93;;;;;;;-0.02;100.00;102934.97;4936139;29;20058;-84
2023/04/03 01:31:16;;;;;;;12.30;7.25;;;;;;;-0.02;100.00;102930.66;4931558;29;20047;-84
2023/04/03 01:33:52;;;;;;;11.07;6.97;;;;;;;0.01;100.00;102936.75;4932000;29;20067;-84
2023/04/03 01:36:24;;;;;;;7.68;6.88;;;;;;;-0.04;100.00;102922.03;4927279;29;20043;-84
2023/04/03 01:38:50;;;;;;;9.50;6.90;;;;;;;-0.06;100.00;102928.94;4948297;29;20047;-84
2023/04/03 01:41:21;;;;;;;8.07;6.80;;;;;;;-0.06;100.00;102934.09;4934196;29;20059;-84
2023/04/03 01:43:53;;;;;;;7.60;6.78;;;;;;;-0.11;100.00;102941.00;4952470;29;20078;-84
2023/04/03 01:46:35;;;;;;;8.60;6.95;;;;;;;-0.09;100.00;102931.50;4945262;29;20039;-84
2023/04/03 01:49:24;;;;;;;9.15;7.57;;;;;;;-0.06;100.00;102933.25;4933959;29;20096;-84
2023/04/03 01:51:49;;;;;;;9.93;7.60;;;;;;;-0.12;100.00;102922.88;4934998;29;20378;-84
2023/04/03 01:54:15;;;;;;;8.23;7.40;;;;;;;-0.07;100.00;102924.63;4919160;29;20046;-84
2023/04/03 01:56:44;;;;;;;9.75;8.30;;;;;;;-0.09;100.00;102928.94;4921854;29;20520;-84
2023/04/03 01:59:10;;;;;;;11.38;8.57;;;;;;;-0.13;100.00;102931.50;4950869;29;20161;-84
2023/04/03 02:01:36;;;;;;;12.23;8.05;;;;;;;-0.16;100.00;102929.78;4951416;29;20577;-84
2023/04/03 02:04:02;;;;;;;10.75;8.57;;;;;;;-0.19;100.00;102932.34;4935340;29;20093;-85
2023/04/03 02:06:27;;;;;;;13.35;9.00;;;;;;;-0.16;100.00;102932.34;4968940;28;20067;-84
2023/04/03 02:08:54;;;;;;;11.05;8.98;;;;;;;-0.21;100.00;102939.25;4917882;29;20146;-84
2023/04/03 02:11:26;;;;;;;9.80;8.80;;;;;;;-0.14;100.00;102940.13;4948674;29;20046;-84
2023/04/03 02:13:52;;;;;;;12.25;9.70;;;;;;;-0.17;100.00;102933.22;4936865;29;20031;-84
2023/04/03 02:16:24;;;;;;;15.45;10.52;;;;;;;-0.17;100.00;102935.81;4926647;29;20034;-84
2023/04/03 02:18:53;;;;;;;11.15;10.05;;;;;;;-0.16;100.00;102934.06;4943851;29;20263;-84
2023/04/03 02:21:18;;;;;;;10.57;9.48;;;;;;;-0.02;100.00;102929.81;4935082;29;20044;-85
2023/04/03 02:23:47;;;;;;;13.02;10.20;;;;;;;-0.01;100.00;102932.41;4934028;29;20044;-84
2023/04/03 02:26:16;;;;;;;12.73;10.32;;;;;;;0.02;100.00;102941.94;4940836;29;20051;-84
2023/04/03 02:28:50;;;;;;;11.30;10.05;;;;;;;0.09;100.00;102928.16;4921755;29;20533;-84
2023/04/03 02:31:22;;;;;;;11.73;10.00;;;;;;;0.16;100.00;102934.19;4952730;29;20031;-84
2023/04/03 02:33:53;;;;;;;12.02;10.23;;;;;;;0.21;100.00;102942.84;4953014;29;20039;-84
2023/04/03 02:36:42;;;;;;;12.53;10.27;;;;;;;0.22;100.00;102940.25;4937102;29;20614;-84
2023/04/03 02:39:08;;;;;;;11.23;9.95;;;;;;;0.27;100.00;102937.66;4934083;29;20385;-84
2023/04/03 02:41:35;;;;;;;12.93;9.90;;;;;;;0.30;100.00;102948.88;4924255;29;20126;-84
2023/04/03 02:44:21;;;;;;;14.45;9.98;;;;;;;0.31;100.00;102954.94;4917866;29;20134;-84
2023/04/03 02:46:53;;;;;;;11.30;9.88;;;;;;;0.31;100.00;102947.16;4900768;29;20040;-84
2023/04/03 02:49:18;;;;;;;12.70;9.45;;;;;;;0.32;100.00;102951.47;4943769;29;20043;-84
2023/04/03 02:51:44;;;;;;;12.88;9.80;;;;;;;0.33;100.00;102958.38;4950281;28;20035;-84
2023/04/03 02:54:16;;;;;;;13.35;9.73;;;;;;;0.34;100.00;102954.94;4949580;29;20130;-84
2023/04/03 02:56:41;;;;;;;9.88;5.60;;;;;;;0.39;100.00;102958.41;4954144;29;20039;-84
2023/04/03 02:59:14;;;;;;;10.73;9.07;;;;;;;0.31;100.00;102957.53;4937392;29;20044;-84
2023/04/03 03:01:49;;;;;;;12.97;9.13;;;;;;;0.32;100.00;102959.25;4934618;29;20043;-84
2023/04/03 03:04:43;;;;;;;14.77;9.18;;;;;;;0.34;100.00;102959.25;4915616;29;20044;-84
2023/04/03 03:07:12;;;;;;;12.02;9.00;;;;;;;0.30;100.00;102958.38;4928682;29;20090;-84
2023/04/03 03:09:40;;;;;;;11.77;8.52;;;;;;;0.33;100.00;102958.38;4933258;29;20043;-84
2023/04/03 03:12:09;;;;;;;10.50;8.43;;;;;;;0.34;100.00;102954.06;4949980;29;20059;-84
2023/04/03 03:14:37;;;;;;;8.82;7.93;;;;;;;0.35;100.00;102946.31;4937535;29;20465;-84
2023/04/03 03:17:06;;;;;;;10.75;8.40;;;;;;;0.34;100.00;102952.34;4945890;29;20035;-84
2023/04/03 03:19:31;;;;;;;9.65;8.35;;;;;;;0.34;100.00;102944.56;4930831;29;20352;-84
2023/04/03 03:22:06;;;;;;;11.57;7.80;;;;;;;0.31;100.00;102942.84;4946136;29;20051;-84
2023/04/03 03:24:32;;;;;;;12.15;8.02;;;;;;;0.36;100.00;102949.75;4930576;29;20052;-84
2023/04/03 03:26:57;;;;;;;10.65;7.65;;;;;;;0.35;100.00;102951.47;4930326;29;20046;-84
2023/04/03 03:29:26;;;;;;;9.82;8.18;;;;;;;0.34;100.00;102954.94;4944999;29;20394;-83
2023/04/03 03:31:51;;;;;;;8.77;7.80;;;;;;;0.36;100.00;102952.34;4902369;29;20036;-84
2023/04/03 03:34:21;;;;;;;10.27;7.97;;;;;;;0.36;100.00;102954.94;4952404;28;20047;-84
2023/04/03 03:36:46;;;;;;;10.55;7.82;;;;;;;0.34;100.00;102961.84;4913243;29;20040;-84
2023/04/03 03:39:15;;;;;;;8.38;7.10;;;;;;;0.36;100.00;102965.28;4914863;29;20040;-84
2023/04/03 03:41:43;;;;;;;13.60;7.35;;;;;;;0.39;100.00;102958.41;4931237;29;20134;-84
2023/04/03 03:44:31;;;;;;;;;;;;;;;;;;;;;
2023/04/03 03:46:58;;;;;;;10.18;7.00;;;;;;;0.35;100.00;102967.03;4920352;29;20722;-83
2023/04/03 03:49:26;;;;;;;8.63;6.70;;;;;;;0.36;100.00;102970.47;4918390;29;20503;-84
2023/04/03 03:51:56;;;;;;;9.75;6.97;;;;;;;0.34;100.00;102973.06;4921488;29;20043;-84
2023/04/03 03:54:21;;;;;;;11.82;6.57;;;;;;;0.32;100.00;102967.00;4933554;29;20248;-84
2023/04/03 03:56:50;;;;;;;9.57;6.47;;;;;;;0.34;100.00;102974.78;4913037;29;20047;-83
2023/04/03 03:59:16;;;;;;;9.73;6.25;;;;;;;0.29;100.00;102973.06;4914335;29;20044;-84
2023/04/03 04:01:47;;;;;;;8.98;6.35;;;;;;;0.35;100.00;102977.38;4916249;29;20180;-84
2023/04/03 04:04:16;;;;;;;8.00;6.27;;;;;;;0.33;100.00;102979.09;4946844;28;20122;-84
2023/04/03 04:06:45;;;;;;;8.55;6.38;;;;;;;0.35;100.00;102992.03;4913848;29;20047;-84
2023/04/03 04:09:22;;;;;;;9.60;6.25;;;;;;;0.35;100.00;102986.88;4918022;29;20036;-84
2023/04/03 04:11:57;;;;;;;10.85;6.15;;;;;;;0.37;100.00;102988.59;4929169;29;20035;-84
2023/04/03 04:14:33;;;;;;;10.77;5.80;;;;;;;0.35;100.00;102979.97;4929584;29;20059;-84
2023/04/03 04:17:02;;;;;;;10.48;5.97;;;;;;;0.32;100.00;102979.97;4911075;29;20448;-83
2023/04/03 04:19:30;;;;;;;11.48;6.20;;;;;;;0.35;100.00;102981.69;4928301;29;20556;-84
2023/04/03 04:22:04;;;;;;;12.52;5.60;;;;;;;0.32;100.00;102991.19;4920743;29;20398;-83
2023/04/03 04:24:41;;;;;;;9.25;5.50;;;;;;;0.31;100.00;102994.63;4916677;29;20044;-84
2023/04/03 04:27:07;;;;;;;9.88;5.43;;;;;;;0.28;100.00;102991.16;4932411;29;20044;-83
2023/04/03 04:29:54;;;;;;;6.15;5.00;;;;;;;0.29;100.00;102985.13;4930968;29;20059;-84
2023/04/03 04:32:22;;;;;;;8.05;5.03;;;;;;;0.25;100.00;102980.81;4930746;29;20024;-83
2023/04/03 04:34:48;;;;;;;6.32;4.93;;;;;;;0.21;100.00;102979.06;4932239;29;20046;-84
2023/04/03 04:37:19;;;;;;;7.40;4.88;;;;;;;0.19;100.00;102984.25;4951361;29;20046;-84
2023/04/03 04:39:52;;;;;;;7.82;4.97;;;;;;;0.22;100.00;102984.25;4938687;29;20052;-84
2023/04/03 04:42:20;;;;;;;10.10;5.10;;;;;;;0.15;100.00;102989.41;4935142;29;20118;-83
2023/04/03 04:44:55;;;;;;;8.38;5.28;;;;;;;0.08;100.00;102985.06;4935996;29;20047;-84
2023/04/03 04:47:20;;;;;;;7.10;4.85;;;;;;;0.10;100.00;102985.94;4931404;29;20043;-84
2023/04/03 04:49:49;;;;;;;8.10;4.65;;;;;;;0.10;100.00;102993.72;4944472;29;20032;-84
2023/04/03 04:52:20;;;;;;;9.00;4.75;;;;;;;0.11;100.00;102990.25;4950805;29;20042;-84
2023/04/03 04:54:55;;;;;;;9.05;4.57;;;;;;;0.11;100.00;102998.03;4946560;29;20427;-84
2023/04/03 04:57:24;;;;;;;10.38;5.07;;;;;;;0.13;100.00;102998.88;4936463;29;20031;-84
2023/04/03 04:59:52;;;;;;;17.80;11.48;;;;;;;0.15;100.00;103003.22;4934109;29;20130;-85
2023/04/03 05:02:23;;;;;;;22.90;17.77;;;;;;;0.15;100.00;103015.28;4931203;29;20087;-84
2023/04/03 05:04:52;;;;;;;14.35;11.18;;;;;;;0.17;100.00;103013.56;4932320;29;20036;-84
2023/04/03 05:07:20;;;;;;;24.02;21.45;;;;;;;0.13;100.00;103011.84;4927490;29;20040;-84
2023/04/03 05:09:49;;;;;;;15.90;11.45;;;;;;;0.13;100.00;103017.00;4896384;29;20481;-85
2023/04/03 05:12:17;;;;;;;10.02;8.77;;;;;;;0.14;100.00;103010.97;4898503;29;20036;-84
2023/04/03 05:14:58;;;;;;;12.48;8.00;;;;;;;0.15;100.00;103010.97;4929299;29;20401;-85
2023/04/03 05:17:32;;;;;;;10.93;6.60;;;;;;;0.18;100.00;103010.13;4926044;29;20135;-84
2023/04/03 05:20:17;;;;;;;6.70;4.97;;;;;;;0.22;100.00;103014.44;4951296;29;20046;-84
2023/04/03 05:22:45;;;;;;;6.18;4.30;;;;;;;0.23;100.00;103018.75;4934493;29;20109;-85
2023/04/03 05:28:02;;;;;;;8.05;5.90;;;;;;;0.25;100.00;103017.03;4900986;29;20051;-84
2023/04/03 05:30:33;;;;;;;11.68;6.25;;;;;;;0.25;100.00;103014.47;4917863;29;20023;-84
2023/04/03 05:33:07;;;;;;;7.93;4.90;;;;;;;0.27;100.00;103020.50;4921129;29;20035;-85
2023/04/03 05:35:33;;;;;;;8.93;5.78;;;;;;;0.28;100.00;103025.69;4949509;29;20575;-84
2023/04/03 05:37:59;;;;;;;10.82;4.95;;;;;;;0.28;100.00;103022.22;4950168;29;20039;-85
2023/04/03 05:40:32;;;;;;;10.95;6.88;;;;;;;0.31;100.00;103028.28;4949973;29;20061;-85
2023/04/03 05:42:58;;;;;;;12.10;9.30;;;;;;;0.34;100.00;103026.56;4942592;29;20063;-84
2023/04/03 05:45:28;;;;;;;7.93;6.15;;;;;;;0.36;100.00;103025.72;4931937;29;20040;-85
2023/04/03 05:47:57;;;;;;;7.60;4.20;;;;;;;0.37;100.00;103032.63;4950063;28;20090;-84
2023/04/03 05:50:30;;;;;;;7.43;4.13;;;;;;;0.41;100.00;103036.97;4931802;29;20544;-85
2023/04/03 05:53:06;;;;;;;7.30;3.85;;;;;;;0.43;100.00;103040.44;4948096;29;20102;-84
2023/04/03 05:55:41;;;;;;;6.72;3.90;;;;;;;0.46;100.00;103036.97;4941839;29;20035;-85
2023/04/03 05:58:36;;;;;;;9.50;3.78;;;;;;;0.51;100.00;103041.31;4931987;29;20043;-84
2023/04/03 06:01:01;;;;;;;8.65;4.07;;;;;;;0.57;100.00;103040.47;4926480;29;20039;-84
2023/04/03 06:03:30;;;;;;;7.22;3.72;;;;;;;0.62;100.00;103039.63;4919303;29;20047;-84
2023/04/03 06:06:24;;;;;;;6.68;3.80;;;;;;;0.69;100.00;103042.22;4912835;29;20032;-84
2023/04/03 06:08:53;;;;;;;6.00;3.50;;;;;;;0.73;100.00;103041.34;4931956;29;20437;-85
2023/04/03 06:11:18;;;;;;;7.63;3.55;;;;;;;0.77;100.00;103036.19;4913565;29;20441;-84
2023/04/03 06:13:58;;;;;;;6.72;3.60;;;;;;;0.82;100.00;103044.00;4932085;29;20044;-85
2023/04/03 06:16:27;;;;;;;7.85;3.53;;;;;;;0.86;100.00;103048.31;4946457;28;20087;-85
2023/04/03 06:19:02;;;;;;;8.40;3.35;;;;;;;0.89;100.00;103053.50;4945607;29;20442;-85
2023/04/03 06:22:06;;;;;;;7.28;3.50;;;;;;;0.97;100.00;103059.56;4946158;29;20051;-85
2023/04/03 06:25:00;;;;;;;7.90;3.72;;;;;;;1.00;100.00;103056.09;4928180;29;20043;-85
2023/04/03 06:27:28;;;;;;;7.75;3.47;;;;;;;1.02;100.00;103057.81;4933202;29;20060;-83
2023/04/03 06:30:18;;;;;;;9.02;3.92;;;;;;;1.13;100.00;103060.41;4939337;29;20099;-81
2023/04/03 06:32:47;;;;;;;8.25;3.60;;;;;;;1.15;100.00;103049.19;4914419;29;20066;-81
2023/04/03 06:35:13;;;;;;;6.43;3.40;;;;;;;1.23;100.00;103055.25;4915693;29;20051;-82
2023/04/03 06:37:42;;;;;;;6.30;3.13;;;;;;;1.30;100.00;103066.50;4934099;29;20543;-82
2023/04/03 06:40:19;;;;;;;5.93;3.10;;;;;;;1.38;99.94;103069.94;4929717;29;20532;-82
2023/04/03 06:42:48;;;;;;;7.22;3.47;;;;;;;1.44;99.28;103080.31;4935337;29;20059;-82
2023/04/03 06:45:21;;;;;;;6.70;3.15;;;;;;;1.50;98.98;103067.34;4929699;29;20039;-81
2023/04/03 06:47:49;;;;;;;7.30;3.28;;;;;;;1.60;98.07;103070.78;4914542;29;20575;-83
2023/04/03 06:50:15;;;;;;;7.68;3.10;;;;;;;1.67;98.04;103062.16;4930287;29;20152;-84
2023/04/03 06:52:52;;;;;;;8.10;3.30;;;;;;;1.74;95.97;103074.25;4933914;29;20123;-84
2023/04/03 06:55:18;;;;;;;9.52;4.10;;;;;;;1.86;96.03;103070.75;4934174;29;20575;-87
2023/04/03 06:57:47;;;;;;;5.85;2.92;;;;;;;1.94;94.61;103075.94;4942285;29;20084;-88
2023/04/03 07:00:16;;;;;;;7.82;3.00;;;;;;;2.05;95.27;103080.25;4915062;29;20499;-84
2023/04/03 07:02:42;;;;;;;5.72;3.15;;;;;;;2.17;94.95;103076.75;4916864;29;20048;-83
2023/04/03 07:05:08;;;;;;;7.10;2.92;;;;;;;2.29;94.03;103084.50;4915508;29;20508;-84
2023/04/03 07:07:47;;;;;;;;;;;;;;;;;;;;;
2023/04/03 07:10:20;;;;;;;6.28;2.88;;;;;;;2.56;92.58;103082.66;4934263;29;20042;-84
2023/04/03 07:12:52;;;;;;;;;;;;;;;2.70;93.32;103078.25;4946688;29;20131;-84
2023/04/03 07:15:24;;;;;;;7.95;3.22;;;;;;;2.73;91.88;103081.69;4940909;29;19970;-83
2023/04/03 07:17:49;;;;;;;6.60;3.38;;;;;;;2.74;89.78;103079.94;4945908;29;20036;-83
2023/04/03 07:20:21;;;;;;;6.85;2.88;;;;;;;2.82;89.75;103086.00;4939086;29;20065;-83
2023/04/03 07:22:50;;;;;;;7.80;2.97;;;;;;;2.90;88.89;103084.22;4948786;29;20064;-83
2023/04/03 07:25:16;;;;;;;5.72;3.05;;;;;;;3.00;88.90;103075.47;4915510;29;20317;-84
2023/04/03 07:27:44;;;;;;;7.30;2.85;;;;;;;3.11;88.00;103084.06;4899577;29;20143;-84
2023/04/03 07:30:13;;;;;;;6.65;3.20;;;;;;;3.29;87.01;103092.63;4912077;29;20047;-84
2023/04/03 07:32:39;;;;;;;7.78;3.22;;;;;;;3.36;85.89;103091.69;4922045;29;20051;-83
2023/04/03 07:35:11;;;;;;;6.60;3.22;;;;;;;3.51;85.51;103107.16;4892550;29;20115;-83
2023/04/03 07:37:40;;;;;;;6.07;2.72;;;;;;;3.59;83.58;103100.16;4889227;29;20056;-83
2023/04/03 07:40:09;;;;;;;7.32;2.83;;;;;;;3.66;83.26;103108.78;4893154;29;20124;-82
2023/04/03 07:42:38;;;;;;;9.00;3.20;;;;;;;3.74;82.19;103107.84;4904620;29;20115;-82
2023/04/03 07:45:04;;;;;;;5.60;2.53;;;;;;;3.80;81.07;103111.25;4902522;29;20044;-82
2023/04/03 07:47:35;;;;;;;8.50;2.88;;;;;;;3.93;81.54;103105.06;4895310;29;20045;-82
2023/04/03 07:50:01;;;;;;;8.55;3.00;;;;;;;4.08;79.94;103107.53;4892999;29;20513;-82
2023/04/03 07:52:27;;;;;;;7.15;2.83;;;;;;;4.21;79.77;103110.84;4876549;29;20033;-83
2023/04/03 07:54:55;;;;;;;4.35;2.42;;;;;;;4.26;79.71;103109.91;4901832;29;20070;-83
2023/04/03 07:57:23;;;;;;;7.15;2.75;;;;;;;4.35;77.86;103107.19;4931489;29;20111;-83
2023/04/03 07:59:55;;;;;;;5.47;2.65;;;;;;;4.54;78.16;103094.81;4933828;29;20036;-83
2023/04/03 08:02:24;;;;;;;5.57;2.30;;;;;;;4.67;75.96;103101.59;4907861;29;20036;-83
2023/04/03 08:04:53;;;;;;;7.40;2.72;;;;;;;4.83;77.02;103104.00;4912585;29;20040;-83
2023/04/03 08:07:28;;;;;;;6.22;2.65;;;;;;;4.92;75.49;103096.06;4914602;29;20438;-83
2023/04/03 08:09:57;;;;;;;6.90;2.80;;;;;;;4.96;75.23;103101.19;4907063;29;20040;-82
2023/04/03 08:12:25;;;;;;;6.30;2.50;;;;;;;5.12;74.99;103106.19;4917714;29;20392;-83
2023/04/03 08:14:53;;;;;;;7.05;2.88;;;;;;;5.20;74.06;103104.31;4909786;29;20079;-83
2023/04/03 08:17:22;;;;;;;5.18;2.10;;;;;;;5.21;72.67;103101.72;4913684;29;20042;-83
2023/04/03 08:19:47;;;;;;;8.75;2.53;;;;;;;5.39;73.08;103105.75;4897576;29;20028;-83
2023/04/03 08:22:21;;;;;;;8.27;2.88;;;;;;;5.46;71.23;103107.38;4896311;29;20043;-83
2023/04/03 08:25:01;;;;;;;6.13;2.40;;;;;;;5.52;70.61;103107.28;4917913;29;20059;-83
2023/04/03 08:27:33;;;;;;;8.30;2.75;;;;;;;5.61;71.05;103101.94;4930295;29;20039;-83
2023/04/03 08:30:11;;;;;;;5.90;2.40;;;;;;;5.74;70.50;103101.72;4949689;29;20039;-83
2023/04/03 08:32:37;;;;;;;5.85;2.70;;;;;;;5.82;69.15;103105.91;4946215;29;20130;-83
2023/04/03 08:35:07;;;;;;;7.75;2.30;;;;;;;5.86;68.26;103104.94;4926421;29;20067;-83
2023/04/03 08:37:37;;;;;;;8.73;2.90;;;;;;;6.05;68.35;103112.50;4923136;29;20475;-82
2023/04/03 08:40:23;;;;;;;3.78;2.05;;;;;;;6.12;68.32;103108.88;4931593;29;20114;-83
2023/04/03 08:43:10;;;;;;;11.32;2.55;;;;;;;6.33;68.25;103124.13;4937353;29;20051;-82
2023/04/03 08:46:13;;;;;;;6.47;2.33;;;;;;;6.32;66.18;103122.41;4949477;29;20035;-82
2023/04/03 08:48:49;;;;;;;3.85;2.00;;;;;;;6.49;65.32;103114.25;4923418;29;20107;-83
2023/04/03 08:51:23;;;;;;;8.93;5.38;;;;;;;6.50;62.35;103111.59;4930786;29;20031;-82
2023/04/03 08:54:15;;;;;;;5.00;3.70;;;;;;;6.63;63.67;103124.41;4933043;29;20040;-83
2023/04/03 08:56:43;;;;;;;5.13;1.85;;;;;;;6.53;59.87;103121.13;4927709;29;20046;-82
2023/04/03 08:59:23;;;;;;;4.03;1.85;;;;;;;6.61;58.66;103129.69;4916003;29;20048;-82
2023/04/03 09:01:56;;;;;;;3.83;1.83;;;;;;;6.81;59.81;103116.19;4930935;29;20836;-82
2023/04/03 09:04:22;;;;;;;;;;;;;;;7.15;61.60;103114.50;4933648;29;20027;-84
2023/04/03 09:06:58;;;;;;;4.75;1.95;;;;;;;7.23;57.47;103111.75;4914491;29;19925;-82
2023/04/03 09:09:40;;;;;;;3.65;1.48;;;;;;;7.32;56.00;103114.13;4932408;29;20050;-81
2023/04/03 09:12:39;;;;;;;3.80;1.70;;;;;;;7.36;52.72;103113.16;4914137;29;20480;-81
2023/04/03 09:15:30;;;;;;;2.88;1.50;;;;;;;7.24;50.08;103108.22;4919112;29;20040;-82
2023/04/03 09:18:30;;;;;;;5.07;1.70;;;;;;;7.48;55.21;103120.72;4914533;29;20157;-82
2023/04/03 09:21:13;;;;;;;3.17;1.75;;;;;;;7.54;52.57;103120.56;4914828;29;20062;-83
2023/04/03 09:24:23;;;;;;;3.95;1.27;;;;;;;7.93;52.31;103112.56;4932496;29;20043;-82
2023/04/03 09:27:05;;;;;;;2.53;1.00;;;;;;;7.96;47.45;103122.97;4885249;29;20063;-82
2023/04/03 09:29:36;;;;;;;2.97;1.30;;;;;;;7.99;44.26;103128.13;4913246;29;20032;-82
2023/04/03 09:32:26;;;;;;;2.20;1.10;;;;;;;7.84;42.59;103133.78;4913888;29;20092;-82
2023/04/03 09:35:04;;;;;;;3.22;1.08;;;;;;;7.76;44.49;103125.28;4908187;29;20402;-82
2023/04/03 09:37:41;;;;;;;4.28;1.10;;;;;;;7.72;43.32;103113.16;4908668;29;20081;-81
2023/04/03 09:40:34;;;;;;;2.42;1.08;;;;;;;7.86;41.86;103111.88;4908612;29;20032;-82
2023/04/03 09:43:23;;;;;;;1.95;1.15;;;;;;;7.76;40.86;103120.91;4908634;29;20025;-81
2023/04/03 09:45:58;;;;;;;2.78;1.30;;;;;;;7.89;40.35;103113.56;4908475;29;20048;-81
2023/04/03 09:48:35;;;;;;;2.60;1.02;;;;;;;8.34;41.78;103105.38;4898358;29;20039;-82
2023/04/03 09:51:04;;;;;;;2.17;1.13;;;;;;;8.85;39.19;103089.88;4908890;29;20516;-84
2023/04/03 09:53:46;;;;;;;2.72;1.10;;;;;;;9.54;39.29;103090.28;4894016;29;20107;-81
2023/04/03 09:56:25;;;;;;;12.95;1.20;;;;;;;10.29;38.40;103085.91;4908306;29;20405;-81
2023/04/03 09:58:59;;;;;;;3.97;1.20;;;;;;;10.92;34.35;103082.59;4894710;29;20044;-81
2023/04/03 10:01:43;;;;;;;2.97;1.23;;;;;;;11.46;34.79;103072.50;4907876;29;20390;-82
2023/04/03 10:04:21;;;;;;;4.03;1.15;;;;;;;12.01;31.28;103076.31;4908646;29;20037;-82
2023/04/03 10:06:55;;;;;;;2.25;1.05;;;;;;;12.77;30.03;103075.41;4914081;29;20158;-82
2023/04/03 10:09:42;;;;;;;2.13;0.95;;;;;;;13.40;27.94;103065.31;4931017;29;20130;-82
2023/04/03 10:12:15;;;;;;;1.42;0.70;;;;;;;13.52;26.88;103061.16;4900053;29;20496;-82
2023/04/03 10:15:04;;;;;;;1.70;1.00;;;;;;;14.51;28.46;103063.03;4929273;29;20040;-82
2023/04/03 10:17:49;;;;;;;1.63;1.00;;;;;;;15.01;27.09;103062.84;4898975;29;20052;-82
2023/04/03 10:20:43;;;;;;;4.80;1.00;;;;;;;15.65;28.68;103065.28;4931104;29;20139;-82
2023/04/03 10:23:40;;;;;;;3.15;1.00;;;;;;;15.81;28.87;103067.00;4899801;29;20036;-82
2023/04/03 10:26:37;;;;;;;2.22;0.80;;;;;;;15.46;26.48;103059.28;4897519;29;20450;-82
2023/04/03 10:29:22;;;;;;;2.00;1.00;;;;;;;15.80;25.60;103059.97;4888338;29;20056;-82
2023/04/03 10:32:05;;;;;;;1.80;1.00;;;;;;;15.41;26.00;103056.06;4895341;29;20127;-83
2023/04/03 10:34:47;;;;;;;2.00;0.88;;;;;;;15.22;26.00;103055.44;4896321;29;20417;-83
2023/04/03 10:37:47;;;;;;;2.30;1.17;;;;;;;14.84;28.77;103045.25;4894367;29;20044;-82
2023/04/03 10:40:32;;;;;;;2.22;1.30;;;;;;;13.79;27.09;103038.59;4902038;29;20068;-82
2023/04/03 10:43:09;;;;;;;3.92;1.30;;;;;;;13.02;28.27;103038.09;4897080;29;20044;-82
2023/04/03 10:46:02;;;;;;;1.90;1.05;;;;;;;12.62;30.31;103035.66;4894994;29;20044;-82
2023/04/03 10:48:53;;;;;;;2.42;1.08;;;;;;;12.17;31.52;103032.44;4911163;29;20127;-81
2023/04/03 10:52:04;;;;;;;2.47;0.82;;;;;;;11.47;32.08;103037.31;4896133;29;20041;-82
2023/04/03 10:54:55;;;;;;;3.00;1.50;;;;;;;10.44;33.03;103035.34;4896278;29;20103;-83
2023/04/03 10:57:24;;;;;;;2.13;1.10;;;;;;;9.60;31.62;103024.34;4895114;29;20523;-83
2023/04/03 11:00:24;;;;;;;1.23;1.00;;;;;;;9.53;34.37;103025.47;4910695;29;20029;-83
2023/04/03 11:03:15;;;;;;;1.85;0.80;;;;;;;9.07;33.49;103027.03;4895395;29;20048;-83
2023/04/03 11:05:54;;;;;;;2.65;1.48;;;;;;;9.02;33.66;103028.94;4894865;29;20060;-83
2023/04/03 11:08:34;;;;;;;3.20;1.02;;;;;;;9.06;35.00;103035.81;4908121;29;20486;-83
2023/04/03 11:11:17;;;;;;;3.30;1.10;;;;;;;8.76;33.62;103028.00;4912248;29;20051;-83
2023/04/03 11:14:16;;;;;;;2.10;1.20;;;;;;;8.93;35.96;103018.75;4928414;29;20036;-83
2023/04/03 11:16:47;;;;;;;3.30;1.25;;;;;;;8.90;34.09;103026.72;4896813;29;20035;-83
2023/04/03 11:19:39;;;;;;;2.58;1.30;;;;;;;9.02;36.09;103026.31;4913055;29;20549;-83
2023/04/03 11:22:30;;;;;;;2.53;0.90;;;;;;;9.04;35.14;103027.13;4897577;29;20039;-84
2023/04/03 11:25:11;;;;;;;1.92;1.05;;;;;;;8.94;32.47;103015.22;4900458;29;20052;-84
2023/04/03 11:27:43;;;;;;;2.75;1.20;;;;;;;8.94;33.80;103015.22;4908405;29;20036;-84
2023/04/03 11:30:38;;;;;;;3.47;1.60;;;;;;;8.79;33.89;103014.78;4875073;29;20052;-84
2023/04/03 11:33:30;;;;;;;2.53;0.95;;;;;;;8.84;34.31;103000.69;4858455;29;20033;-84
2023/04/03 11:36:08;;;;;;;3.55;1.20;;;;;;;8.96;34.52;102992.41;4859440;29;20045;-84
2023/04/03 11:38:40;;;;;;;1.58;0.90;;;;;;;9.19;34.33;102989.84;4875038;29;20068;-84
2023/04/03 11:41:17;;;;;;;4.07;1.20;;;;;;;9.28;33.70;102983.44;4874718;29;20137;-84
2023/04/03 11:44:25;;;;;;;2.65;0.90;;;;;;;9.37;33.52;102983.97;4879421;29;20288;-84
2023/04/03 11:46:57;;;;;;;1.63;0.80;;;;;;;9.22;29.73;102981.91;4877223;29;20044;-84
2023/04/03 11:49:53;;;;;;;2.55;1.00;;;;;;;9.46;31.45;102981.94;4878233;29;20060;-84
2023/04/03 11:52:38;;;;;;;3.10;0.80;;;;;;;9.56;31.76;102993.84;4878289;29;20148;-84
2023/04/03 11:55:29;;;;;;;3.63;1.00;;;;;;;9.50;31.35;102988.81;4877691;29;20044;-83
2023/04/03 11:57:57;;;;;;;4.10;1.05;;;;;;;9.40;29.50;102977.75;4878158;29;20128;-84
2023/04/03 12:00:50;;;;;;;3.20;0.85;;;;;;;9.63;30.39;102977.81;4897399;29;20097;-85
2023/04/03 12:03:31;;;;;;;2.20;1.17;;;;;;;9.62;30.83;102975.25;4912436;29;20052;-84
2023/04/03 12:06:17;;;;;;;3.40;1.02;;;;;;;9.67;31.98;102961.03;4913100;29;20047;-84
2023/04/03 12:08:50;;;;;;;2.67;1.00;;;;;;;9.84;31.07;102968.28;4909622;29;20562;-84